Time;durP1;ratioP1;P1;durP2;ratioP2;P2;SDS_P1;SDS_P2;PMS_P1;PMS_P2;Temp;Humidity;BMP_temperature;BMP_pressure;BME280_temperature;BME280_humidity;BME280_pressure;Samples;Min_cycle;Max_cycle;Signal;HPM_P1;HPM_P2
2023/04/12 00:00:38;;;;;;;6.87;2.10;;;4.70;44.80;4.90;93567.00;;;;7399695;19;20133;-79
2023/04/12 00:03:12;;;;;;;4.60;1.80;;;4.70;99.90;4.70;93560.00;;;;7396656;19;20137;-79
2023/04/12 00:05:53;;;;;;;3.60;1.80;;;4.60;99.90;4.70;93556.00;;;;7394230;19;20165;-79
2023/04/12 00:08:34;;;;;;;5.07;1.97;;;4.50;1.00;4.70;93556.00;;;;7397817;19;20177;-78
2023/04/12 00:11:07;;;;;;;9.17;1.70;;;4.50;1.00;4.60;93523.00;;;;7399233;19;20584;-78
2023/04/12 00:13:43;;;;;;;6.30;2.20;;;4.40;18.10;4.50;93550.00;;;;7399907;19;20121;-79
2023/04/12 00:16:17;;;;;;;7.53;1.97;;;4.40;99.90;4.50;93545.00;;;;7399164;19;20117;-79
2023/04/12 00:18:51;;;;;;;5.97;2.30;;;4.40;99.90;4.50;93539.00;;;;7398659;19;20145;-79
2023/04/12 00:21:18;;;;;;;3.60;1.97;;;4.30;99.90;4.50;93530.00;;;;7398266;19;20117;-77
2023/04/12 00:23:53;;;;;;;6.67;2.43;;;4.30;1.00;4.60;93522.00;;;;7399856;19;20612;-77
2023/04/12 00:26:22;;;;;;;7.90;1.80;;;4.30;1.00;4.50;93525.00;;;;7399107;19;20140;-76
2023/04/12 00:28:56;;;;;;;5.80;2.17;;;4.30;1.00;4.40;93520.00;;;;7398894;19;20147;-76
2023/04/12 00:31:24;;;;;;;6.87;2.03;;;4.30;99.90;4.50;93521.00;;;;7398480;19;20155;-76
2023/04/12 00:34:01;;;;;;;7.60;2.00;;;4.30;99.90;4.50;93517.00;;;;7394355;19;20513;-75
2023/04/12 00:36:34;;;;;;;6.50;2.43;;;4.30;99.90;4.40;93503.00;;;;7398217;19;20141;-75
2023/04/12 00:39:10;;;;;;;9.13;2.13;;;4.20;99.90;4.50;93502.00;;;;7398323;19;20628;-75
2023/04/12 00:41:44;;;;;;;5.13;2.03;;;4.20;1.00;4.50;93500.00;;;;7389906;19;20135;-75
2023/04/12 00:44:12;;;;;;;6.47;2.27;;;4.20;1.00;4.50;93500.00;;;;7397452;19;20141;-75
2023/04/12 00:46:40;;;;;;;5.07;1.67;;;4.20;1.00;4.50;93502.00;;;;7396611;19;20143;-75
2023/04/12 00:49:14;;;;;;;9.73;2.30;;;4.20;1.00;4.50;93495.00;;;;7398283;19;20459;-75
2023/04/12 00:51:51;;;;;;;7.17;2.20;;;4.20;1.00;4.60;93495.00;;;;7397353;19;20125;-75
2023/04/12 00:54:25;;;;;;;4.57;2.40;;;4.20;1.00;4.50;93495.00;;;;7398456;19;20510;-75
2023/04/12 00:57:00;;;;;;;5.73;2.00;;;4.20;19.20;4.50;93488.00;;;;7397840;19;20140;-75
2023/04/12 00:59:34;;;;;;;2.97;1.97;;;4.20;55.30;4.50;93490.00;;;;7397380;19;20616;-76
2023/04/12 01:02:02;;;;;;;6.47;1.97;;;4.20;85.90;4.50;93445.00;;;;7394571;19;20252;-79
2023/04/12 01:04:43;;;;;;;3.10;2.13;;;4.20;99.90;4.50;93454.00;;;;7392042;19;20149;-81
2023/04/12 01:07:52;;;;;;;10.30;2.20;;;4.20;99.90;4.60;93449.00;;;;7396343;19;20144;-80
2023/04/12 01:11:05;;;;;;;3.10;1.80;;;4.20;99.90;4.60;93470.00;;;;7397166;19;20171;-79
2023/04/12 01:14:02;;;;;;;5.20;1.83;;;4.20;99.90;4.50;93476.00;;;;7396728;19;20821;-81
2023/04/12 01:16:46;;;;;;;7.83;2.20;;;4.20;99.90;4.50;93455.00;;;;7390047;19;20562;-80
2023/04/12 01:20:12;;;;;;;9.37;2.53;;;4.20;99.90;4.50;93456.00;;;;7394668;19;20152;-81
2023/04/12 01:23:14;;;;;;;6.20;2.60;;;4.20;99.90;4.40;93452.00;;;;7394824;19;20152;-81
2023/04/12 01:26:32;;;;;;;4.50;2.13;;;4.20;99.90;4.50;93437.00;;;;7395026;19;20161;-80
2023/04/12 01:29:19;;;;;;;4.10;1.87;;;4.10;99.90;4.40;93430.00;;;;7394664;19;20156;-81
2023/04/12 01:32:00;;;;;;;4.93;1.97;;;4.10;99.90;4.40;93414.00;;;;7394972;19;20160;-79
2023/04/12 01:34:32;;;;;;;7.23;2.37;;;4.10;1.00;4.40;93412.00;;;;7393682;19;20148;-81
2023/04/12 01:37:07;;;;;;;5.57;2.17;;;4.10;1.00;4.50;93397.00;;;;7396861;19;20604;-81
2023/04/12 01:39:35;;;;;;;7.37;2.47;;;4.10;1.00;4.60;93336.00;;;;7395036;19;20596;-81
2023/04/12 01:42:08;;;;;;;6.73;2.23;;;4.10;1.00;4.40;93373.00;;;;7394550;19;20148;-80
2023/04/12 01:44:35;;;;;;;6.10;2.77;;;4.10;1.00;4.40;93417.00;;;;7394198;19;20156;-80
2023/04/12 01:47:02;;;;;;;12.33;2.70;;;4.10;1.00;4.40;93402.00;;;;7394277;19;20199;-80
2023/04/12 01:50:02;;;;;;;5.47;2.60;;;4.10;1.00;4.50;93376.00;;;;7394838;19;20152;-81
2023/04/12 01:52:37;;;;;;;6.07;2.60;;;4.10;1.00;4.50;93359.00;;;;7395236;19;20156;-81
2023/04/12 01:55:15;;;;;;;4.03;2.97;;;4.10;1.00;4.40;93358.00;;;;7394462;19;20161;-80
2023/04/12 01:57:44;;;;;;;7.13;2.80;;;4.10;1.00;4.40;93365.00;;;;7394549;19;20504;-81
2023/04/12 02:00:19;;;;;;;4.87;2.70;;;4.10;1.00;4.50;93337.00;;;;7394189;19;20149;-79
2023/04/12 02:03:06;;;;;;;7.53;2.67;;;4.10;1.00;4.50;93357.00;;;;7398560;19;20235;-81
2023/04/12 02:05:41;;;;;;;7.03;2.97;;;4.10;1.00;4.60;93350.00;;;;7401276;19;20607;-81
2023/04/12 02:08:15;;;;;;;7.83;3.23;;;4.10;1.00;4.50;93310.00;;;;7402610;19;20628;-81
2023/04/12 02:10:50;;;;;;;7.87;3.23;;;4.10;1.00;4.50;93373.00;;;;7401820;19;20136;-81
2023/04/12 02:13:18;;;;;;;6.10;3.67;;;4.10;1.00;4.50;93343.00;;;;7401641;19;20154;-82
2023/04/12 02:15:53;;;;;;;9.53;3.30;;;4.10;1.00;4.50;93307.00;;;;7400452;19;20610;-81
2023/04/12 02:18:23;;;;;;;9.83;3.30;;;4.10;1.00;4.60;93316.00;;;;7401857;19;20603;-82
2023/04/12 02:20:56;;;;;;;7.37;3.37;;;4.10;1.00;4.60;93338.00;;;;7401793;19;20492;-81
2023/04/12 02:23:24;;;;;;;5.03;3.23;;;4.10;1.00;4.50;93324.00;;;;7401391;19;20145;-84
2023/04/12 02:25:58;;;;;;;8.10;3.30;;;4.10;1.00;4.60;93325.00;;;;7400691;19;20132;-82
2023/04/12 02:28:33;;;;;;;6.27;3.30;;;4.10;1.00;4.60;93319.00;;;;7402603;19;20152;-83
2023/04/12 02:31:07;;;;;;;7.93;2.90;;;4.10;1.00;4.50;93335.00;;;;7402208;19;20151;-83
2023/04/12 02:33:41;;;;;;;8.37;3.20;;;4.10;1.00;4.60;93316.00;;;;7401368;19;20152;-82
2023/04/12 02:36:10;;;;;;;6.00;3.50;;;4.10;1.00;4.60;93323.00;;;;7400396;19;20149;-83
2023/04/12 02:38:44;;;;;;;9.00;3.60;;;4.10;1.00;4.60;93328.00;;;;7401779;19;20642;-82
2023/04/12 02:41:19;;;;;;;9.33;3.70;;;4.10;1.00;4.50;93294.00;;;;7401810;19;20152;-81
2023/04/12 02:43:46;;;;;;;6.17;3.20;;;4.10;1.00;4.60;93285.00;;;;7399721;19;20137;-81
2023/04/12 02:46:26;;;;;;;9.47;3.30;;;4.10;1.00;4.60;93281.00;;;;7399799;19;20169;-82
2023/04/12 02:48:53;;;;;;;6.50;3.40;;;4.10;1.00;4.60;93275.00;;;;7400881;19;20480;-83
2023/04/12 02:51:27;;;;;;;8.43;3.10;;;4.10;1.00;4.60;93294.00;;;;7402633;19;20150;-80
2023/04/12 02:54:00;;;;;;;6.63;3.40;;;4.10;1.00;4.50;93249.00;;;;7401329;19;20643;-82
2023/04/12 02:56:36;;;;;;;6.83;3.37;;;4.10;1.00;4.60;93276.00;;;;7402254;19;20139;-81
2023/04/12 02:59:09;;;;;;;7.37;3.20;;;4.10;1.00;4.50;93244.00;;;;7399806;19;20148;-81
2023/04/12 03:01:38;;;;;;;5.63;3.40;;;4.10;7.00;4.60;93239.00;;;;7401535;19;20639;-81
2023/04/12 03:04:18;;;;;;;8.50;3.67;;;4.10;84.20;4.60;93243.00;;;;7398864;19;20180;-81
2023/04/12 03:06:52;;;;;;;7.17;3.63;;;4.10;99.90;4.60;93241.00;;;;7401706;19;20495;-82
2023/04/12 03:09:26;;;;;;;5.53;3.60;;;4.10;99.90;4.60;93233.00;;;;7400338;19;20147;-82
2023/04/12 03:11:54;;;;;;;6.93;3.80;;;4.10;99.90;4.60;93222.00;;;;7399469;19;20635;-82
2023/04/12 03:14:27;;;;;;;4.90;3.10;;;4.10;99.90;4.60;93172.00;;;;7401113;19;20533;-83
2023/04/12 03:16:55;;;;;;;4.67;3.37;;;4.10;99.90;4.50;93239.00;;;;7400555;19;20164;-83
2023/04/12 03:19:31;;;;;;;8.13;3.10;;;4.10;99.90;4.50;93225.00;;;;7399855;19;20483;-81
2023/04/12 03:22:06;;;;;;;6.83;3.20;;;4.20;99.90;4.50;93178.00;;;;7401161;19;20133;-81
2023/04/12 03:24:43;;;;;;;4.43;3.00;;;4.10;99.90;4.60;93220.00;;;;7397612;19;20614;-81
2023/04/12 03:27:15;;;;;;;7.57;3.10;;;4.10;99.90;4.60;93216.00;;;;7398681;19;20159;-77
2023/04/12 03:29:51;;;;;;;7.80;3.27;;;4.10;99.90;4.60;93195.00;;;;7401218;19;20587;-76
2023/04/12 03:32:19;;;;;;;5.80;3.40;;;4.10;99.90;4.60;93180.00;;;;7396043;19;20363;-77
2023/04/12 03:34:54;;;;;;;6.37;3.77;;;4.10;99.90;4.60;93206.00;;;;7399534;19;20153;-76
2023/04/12 03:37:27;;;;;;;4.70;3.13;;;4.20;99.90;4.70;93190.00;;;;7401239;19;20163;-76
2023/04/12 03:40:01;;;;;;;7.83;3.60;;;4.10;99.90;4.70;93155.00;;;;7400452;19;20604;-76
2023/04/12 03:42:35;;;;;;;8.00;3.77;;;4.10;99.90;4.70;93178.00;;;;7399905;19;20506;-77
2023/04/12 03:45:03;;;;;;;8.00;3.30;;;4.10;99.90;4.70;93174.00;;;;7399321;19;20173;-78
2023/04/12 03:47:36;;;;;;;6.27;4.07;;;4.20;99.90;4.70;93191.00;;;;7399276;19;20149;-76
2023/04/12 03:50:06;;;;;;;8.50;4.20;;;4.10;99.90;4.60;93158.00;;;;7399852;19;20132;-78
2023/04/12 03:52:39;;;;;;;9.77;4.33;;;4.10;99.90;4.60;93167.00;;;;7399753;19;20541;-77
2023/04/12 03:55:17;;;;;;;8.00;4.57;;;4.20;99.90;4.80;93157.00;;;;7399099;19;20144;-78
2023/04/12 03:57:50;;;;;;;7.93;4.40;;;4.20;99.90;4.60;93157.00;;;;7400400;19;20132;-79
2023/04/12 04:00:24;;;;;;;12.80;4.97;;;4.20;99.90;4.70;93137.00;;;;7399836;19;20133;-78
2023/04/12 04:03:06;;;;;;;12.63;5.47;;;4.20;99.90;4.80;93142.00;;;;7398001;19;20504;-78
2023/04/12 04:05:40;;;;;;;9.57;5.30;;;4.20;99.90;4.80;93139.00;;;;7399232;19;20587;-78
2023/04/12 04:08:14;;;;;;;9.30;5.00;;;4.20;99.90;4.80;93111.00;;;;7399775;19;20125;-78
2023/04/12 04:10:41;;;;;;;12.00;5.57;;;4.20;99.90;4.70;93140.00;;;;7398494;19;20647;-77
2023/04/12 04:13:09;;;;;;;8.67;5.63;;;4.20;99.90;4.70;93118.00;;;;7400042;19;20209;-76
2023/04/12 04:15:43;;;;;;;11.90;5.77;;;4.20;99.90;4.80;93113.00;;;;7395202;19;20144;-78
2023/04/12 04:18:17;;;;;;;9.70;6.17;;;4.20;99.90;4.80;93123.00;;;;7396221;19;20183;-78
2023/04/12 04:20:51;;;;;;;9.50;5.53;;;4.20;99.90;4.70;93109.00;;;;7397959;19;20173;-78
2023/04/12 04:23:27;;;;;;;12.80;5.80;;;4.20;99.90;4.90;93129.00;;;;7398275;19;20157;-80
2023/04/12 04:26:04;;;;;;;12.30;6.30;;;4.30;99.90;4.90;93126.00;;;;7396307;19;20133;-78
2023/04/12 04:28:41;;;;;;;8.63;5.97;;;4.30;99.90;4.80;93122.00;;;;7398292;19;20583;-78
2023/04/12 04:31:16;;;;;;;9.00;6.17;;;4.30;99.90;4.80;93083.00;;;;7398053;19;20153;-79
2023/04/12 04:33:43;;;;;;;9.13;5.63;;;4.30;99.90;4.80;93112.00;;;;7396894;19;20448;-78
2023/04/12 04:36:17;;;;;;;8.63;5.80;;;4.30;99.90;4.80;93119.00;;;;7397776;19;20866;-76
2023/04/12 04:38:45;;;;;;;8.40;6.40;;;4.30;99.90;4.80;93087.00;;;;7399132;19;20153;-80
2023/04/12 04:41:21;;;;;;;12.33;5.87;;;4.30;99.90;4.70;93072.00;;;;7400040;19;20132;-77
2023/04/12 04:43:49;;;;;;;7.70;5.87;;;4.30;99.90;4.80;93106.00;;;;7398303;19;20620;-79
2023/04/12 04:46:24;;;;;;;13.20;6.67;;;4.30;99.90;4.70;93091.00;;;;7383902;19;20172;-75
2023/04/12 04:48:54;;;;;;;10.47;6.30;;;4.30;99.90;4.80;93097.00;;;;7377138;19;20184;-76
2023/04/12 04:51:27;;;;;;;10.07;6.23;;;4.30;99.90;5.00;93081.00;;;;7382020;19;20148;-78
2023/04/12 04:54:01;;;;;;;6.87;5.60;;;4.30;99.90;5.00;93094.00;;;;7383329;19;20627;-75
2023/04/12 04:56:35;;;;;;;10.60;5.77;;;4.30;99.90;4.90;93096.00;;;;7381827;19;20661;-75
2023/04/12 04:59:30;;;;;;;9.20;5.60;;;4.30;99.90;4.80;93037.00;;;;7384611;19;20145;-77
2023/04/12 05:01:57;;;;;;;10.67;6.20;;;4.30;99.90;4.80;93046.00;;;;7383140;19;20564;-76
2023/04/12 05:04:38;;;;;;;10.53;6.30;;;4.30;99.90;4.90;93059.00;;;;7383516;19;20515;-77
2023/04/12 05:07:13;;;;;;;11.73;6.00;;;4.40;99.90;4.80;93081.00;;;;7383085;19;20144;-79
2023/04/12 05:09:46;;;;;;;8.10;5.87;;;4.40;99.90;4.90;93078.00;;;;7383145;19;20198;-77
2023/04/12 05:12:21;;;;;;;9.73;6.33;;;4.40;1.00;4.90;93050.00;;;;7381362;19;20475;-77
2023/04/12 05:14:56;;;;;;;10.70;5.70;;;4.40;1.00;5.00;93075.00;;;;7381797;19;20136;-77
2023/04/12 05:17:37;;;;;;;11.43;6.77;;;4.40;1.00;4.90;93071.00;;;;7382943;19;20443;-78
2023/04/12 05:20:11;;;;;;;9.57;6.20;;;4.40;1.00;5.00;93077.00;;;;7382150;19;20218;-76
2023/04/12 05:22:45;;;;;;;8.40;5.80;;;4.40;1.00;4.90;93036.00;;;;7383427;19;20133;-78
2023/04/12 05:25:13;;;;;;;9.53;5.53;;;4.50;1.00;5.00;93020.00;;;;7381741;19;20139;-76
2023/04/12 05:27:46;;;;;;;11.30;6.40;;;4.50;1.00;5.00;93071.00;;;;7382402;19;20129;-77
2023/04/12 05:30:17;;;;;;;10.10;6.37;;;4.50;1.00;5.10;93036.00;;;;7382066;19;20121;-77
2023/04/12 05:32:44;;;;;;;12.10;7.00;;;4.50;1.00;5.10;93030.00;;;;7378154;19;20625;-77
2023/04/12 05:35:18;;;;;;;10.93;6.37;;;4.50;1.00;5.10;93047.00;;;;7382147;19;20140;-79
2023/04/12 05:37:55;;;;;;;13.60;6.80;;;4.50;1.00;5.00;93030.00;;;;7381667;19;20144;-77
2023/04/12 05:40:30;;;;;;;10.20;6.50;;;4.50;1.00;5.10;93030.00;;;;7382713;19;21422;-78
2023/04/12 05:43:11;;;;;;;11.93;6.60;;;4.50;1.00;5.00;93022.00;;;;7382362;19;20129;-77
2023/04/12 05:45:40;;;;;;;13.50;7.17;;;4.60;1.00;5.10;93034.00;;;;7378261;19;20133;-80
2023/04/12 05:48:13;;;;;;;9.13;6.80;;;4.60;1.00;5.10;93004.00;;;;7382334;19;21665;-79
2023/04/12 05:50:51;;;;;;;9.77;6.10;;;4.60;1.00;5.20;93019.00;;;;7383738;19;20146;-79
2023/04/12 05:53:28;;;;;;;11.03;6.77;;;4.60;1.00;5.10;93018.00;;;;7382318;19;20638;-79
2023/04/12 05:55:55;;;;;;;10.33;6.60;;;4.60;1.00;5.20;92973.00;;;;7383759;19;20158;-79
2023/04/12 05:58:29;;;;;;;10.37;6.30;;;4.60;1.00;5.20;92981.00;;;;7380700;19;20840;-77
2023/04/12 06:00:57;;;;;;;10.57;6.40;;;4.60;1.00;5.20;92995.00;;;;7380513;19;20137;-75
2023/04/12 06:03:40;;;;;;;11.73;6.40;;;4.60;1.00;5.20;92992.00;;;;7379017;19;20564;-75
2023/04/12 06:06:08;;;;;;;9.93;6.03;;;4.60;1.00;5.10;93010.00;;;;7381113;19;20154;-77
2023/04/12 06:08:42;;;;;;;10.23;6.40;;;4.60;1.00;5.20;92959.00;;;;7384253;19;20131;-78
2023/04/12 06:11:16;;;;;;;9.40;6.60;;;4.70;1.00;5.20;92990.00;;;;7381904;19;20486;-76
2023/04/12 06:13:51;;;;;;;10.83;6.93;;;4.70;1.00;5.30;92994.00;;;;7381948;19;20177;-76
2023/04/12 06:16:18;;;;;;;15.33;7.37;;;4.70;1.00;5.30;92964.00;;;;7382524;19;20156;-77
2023/04/12 06:18:51;;;;;;;12.90;7.00;;;4.70;1.00;5.40;92965.00;;;;7383655;19;20140;-78
2023/04/12 06:21:19;;;;;;;13.27;7.70;;;4.70;1.00;5.30;92992.00;;;;7383099;19;20522;-77
2023/04/12 06:23:52;;;;;;;10.10;6.47;;;4.70;1.00;5.30;92942.00;;;;7384542;19;20137;-78
2023/04/12 06:26:19;;;;;;;9.27;6.70;;;4.80;1.00;5.40;92945.00;;;;7381533;19;20145;-78
2023/04/12 06:29:05;;;;;;;11.00;7.03;;;4.80;1.00;5.40;92936.00;;;;7382534;19;22058;-79
2023/04/12 06:31:32;;;;;;;11.20;7.07;;;4.80;1.00;5.50;92967.00;;;;7380758;19;20185;-78
2023/04/12 06:34:06;;;;;;;14.13;6.80;;;4.80;1.00;5.40;92938.00;;;;7377061;19;20171;-80
2023/04/12 06:36:34;;;;;;;9.73;6.40;;;4.90;1.00;5.60;92948.00;;;;7381171;19;20185;-80
2023/04/12 06:39:08;;;;;;;9.47;5.70;;;5.00;1.00;5.70;92924.00;;;;7380766;19;20155;-81
2023/04/12 06:41:35;;;;;;;8.50;6.20;;;5.00;1.00;5.70;92949.00;;;;7382840;19;20128;-79
2023/04/12 06:44:09;;;;;;;10.00;6.23;;;5.00;1.00;5.70;92931.00;;;;7382038;19;20157;-77
2023/04/12 06:46:50;;;;;;;9.77;5.50;;;5.10;1.00;5.80;92924.00;;;;7378533;19;20191;-79
2023/04/12 06:49:25;;;;;;;11.63;5.47;;;5.10;1.00;5.60;92936.00;;;;7382854;19;20145;-80
2023/04/12 06:51:58;;;;;;;8.50;6.30;;;5.10;1.00;5.60;92913.00;;;;7383840;19;20152;-78
2023/04/12 06:54:36;;;;;;;8.30;6.07;;;5.10;1.00;5.70;92926.00;;;;7382724;19;20296;-80
2023/04/12 06:57:10;;;;;;;8.27;5.77;;;5.10;1.00;5.80;92902.00;;;;7383005;19;21240;-81
2023/04/12 06:59:38;;;;;;;12.30;5.67;;;5.20;1.00;5.80;92912.00;;;;7381653;19;20572;-77
2023/04/12 07:02:12;;;;;;;8.47;4.90;;;5.30;1.00;6.00;92884.00;;;;7380933;19;20750;-78
2023/04/12 07:04:52;;;;;;;9.60;4.37;;;5.40;1.00;5.80;92872.00;;;;7379278;19;20265;-77
2023/04/12 07:07:28;;;;;;;8.20;3.87;;;5.40;1.40;6.00;92868.00;;;;7381930;19;20188;-80
2023/04/12 07:09:55;;;;;;;7.50;3.20;;;5.50;99.90;6.00;92875.00;;;;7382106;19;20153;-81
2023/04/12 07:12:29;;;;;;;5.83;3.23;;;5.60;1.00;6.10;92881.00;;;;7382438;19;20135;-77
2023/04/12 07:14:57;;;;;;;7.03;3.10;;;5.60;1.00;6.10;92879.00;;;;7380390;19;20152;-73
2023/04/12 07:17:30;;;;;;;3.20;2.53;;;5.70;1.00;6.10;92861.00;;;;7381743;19;20194;-79
2023/04/12 07:19:58;;;;;;;5.57;2.57;;;5.70;99.90;6.00;92834.00;;;;7381999;19;20463;-79
2023/04/12 07:22:33;;;;;;;5.13;3.10;;;5.80;1.00;6.20;92860.00;;;;7379345;19;20497;-80
2023/04/12 07:25:00;;;;;;;6.93;3.07;;;5.80;1.00;6.30;92840.00;;;;7379748;19;20609;-81
2023/04/12 07:27:35;;;;;;;5.40;2.63;;;5.80;1.00;6.40;92834.00;;;;7380142;19;20140;-79
2023/04/12 07:30:03;;;;;;;4.80;2.70;;;5.90;1.00;6.50;92832.00;;;;7380906;19;20600;-80
2023/04/12 07:32:36;;;;;;;6.07;3.07;;;5.90;7.10;6.60;92815.00;;;;7379352;19;20611;-82
2023/04/12 07:35:05;;;;;;;6.17;3.03;;;6.00;5.90;6.50;92814.00;;;;7375853;19;20152;-79
2023/04/12 07:37:38;;;;;;;7.10;2.40;;;6.10;99.90;6.50;92792.00;;;;7379462;19;20613;-79
2023/04/12 07:40:06;;;;;;;6.80;2.70;;;6.10;99.90;6.50;92789.00;;;;7381521;19;20188;-81
2023/04/12 07:42:40;;;;;;;7.30;2.43;;;6.20;99.90;6.60;92819.00;;;;7381297;19;20169;-81
2023/04/12 07:45:08;;;;;;;2.30;2.10;;;6.30;99.90;6.60;92820.00;;;;7381929;19;20129;-80
2023/04/12 07:47:41;;;;;;;4.30;2.43;;;6.30;99.90;6.60;92812.00;;;;7380349;19;20152;-79
2023/04/12 07:50:15;;;;;;;3.90;2.53;;;6.30;87.00;6.60;92829.00;;;;7381488;19;20125;-83
2023/04/12 07:52:42;;;;;;;5.50;2.10;;;6.30;47.00;6.60;92812.00;;;;7379955;19;20156;-75
2023/04/12 07:55:16;;;;;;;4.93;2.40;;;6.40;1.00;6.70;92778.00;;;;7379714;19;20143;-76
2023/04/12 07:57:57;;;;;;;853.17;287.43;;;6.40;29.30;6.60;92768.00;;;;7379902;19;20524;-82
2023/04/12 08:00:24;;;;;;;7.40;2.40;;;6.40;99.90;6.70;92811.00;;;;7375404;19;20149;-78
2023/04/12 08:03:06;;;;;;;6.37;2.50;;;6.40;99.90;6.80;92811.00;;;;7380211;19;20168;-78
2023/04/12 08:05:41;;;;;;;4.97;2.27;;;6.40;1.00;6.80;92778.00;;;;7379826;19;20173;-81
2023/04/12 08:08:10;;;;;;;7.37;2.37;;;6.40;1.00;6.90;92802.00;;;;7379629;19;20152;-77
2023/04/12 08:10:39;;;;;;;4.23;2.17;;;6.40;1.00;7.00;92800.00;;;;7378385;19;20136;-80
2023/04/12 08:13:14;;;;;;;5.03;2.17;;;6.40;1.00;6.70;92811.00;;;;7379097;19;20612;-76
2023/04/12 08:15:47;;;;;;;6.43;2.57;;;6.30;1.00;7.00;92804.00;;;;7379696;19;20152;-78
2023/04/12 08:18:21;;;;;;;9.03;2.57;;;6.40;1.00;7.00;92774.00;;;;7379913;19;20132;-79
2023/04/12 08:20:49;;;;;;;3.73;2.50;;;6.40;1.00;6.90;92786.00;;;;7377755;19;20560;-80
2023/04/12 08:23:22;;;;;;;6.80;2.80;;;6.40;1.00;6.90;92791.00;;;;7378430;19;20541;-79
2023/04/12 08:25:50;;;;;;;5.40;2.47;;;6.40;99.90;7.10;92813.00;;;;7379464;19;20596;-79
2023/04/12 08:28:27;;;;;;;6.60;3.17;;;6.50;99.90;7.10;92809.00;;;;7378317;19;20157;-81
2023/04/12 08:30:54;;;;;;;5.23;3.40;;;6.50;99.90;7.30;92806.00;;;;7379493;19;20640;-82
2023/04/12 08:33:30;;;;;;;5.40;2.87;;;6.60;99.90;7.40;92813.00;;;;7376643;19;20154;-82
2023/04/12 08:35:58;;;;;;;4.53;2.80;;;6.60;99.90;7.40;92818.00;;;;7378610;19;20508;-80
2023/04/12 08:38:32;;;;;;;5.13;3.27;;;6.80;99.90;7.30;92814.00;;;;7383232;19;20135;-82
2023/04/12 08:41:12;;;;;;;4.47;2.93;;;6.80;99.90;7.50;92817.00;;;;7382439;19;20592;-77
2023/04/12 08:43:46;;;;;;;4.03;2.97;;;6.80;99.90;7.50;92806.00;;;;7376515;19;20133;-79
2023/04/12 08:46:21;;;;;;;4.10;2.90;;;6.90;99.90;7.40;92801.00;;;;7376272;19;20623;-73
2023/04/12 08:48:56;;;;;;;8.37;2.90;;;6.90;45.10;7.50;92785.00;;;;7376423;19;20505;-76
2023/04/12 08:51:33;;;;;;;6.23;2.97;;;6.90;99.90;7.50;92792.00;;;;7374334;19;20128;-76
2023/04/12 08:54:00;;;;;;;3.20;2.60;;;6.90;99.90;7.40;92776.00;;;;7376165;19;20137;-78
2023/04/12 08:56:29;;;;;;;3.77;2.67;;;6.90;99.90;7.60;92783.00;;;;7378526;19;20129;-79
2023/04/12 08:59:03;;;;;;;5.03;2.70;;;7.00;99.90;7.80;92797.00;;;;7379748;19;20125;-82
2023/04/12 09:01:40;;;;;;;5.43;2.80;;;7.10;99.90;8.00;92798.00;;;;7380202;19;20145;-78
2023/04/12 09:04:15;;;;;;;4.53;2.97;;;7.20;99.90;7.90;92786.00;;;;7383704;19;20167;-81
2023/04/12 09:06:49;;;;;;;4.00;2.63;;;7.30;99.90;7.90;92790.00;;;;7383472;19;20125;-77
2023/04/12 09:09:46;;;;;;;5.50;3.13;;;7.40;33.40;7.90;92800.00;;;;7388606;19;20216;-80
2023/04/12 09:12:22;;;;;;;5.53;2.30;;;7.40;1.00;8.00;92785.00;;;;7383988;19;20125;-80
2023/04/12 09:15:20;;;;;;;4.47;2.70;;;7.30;1.00;8.10;92754.00;;;;7386647;19;20149;-81
2023/04/12 09:18:08;;;;;;;3.73;2.20;;;7.50;99.90;8.10;92803.00;;;;7385140;19;20707;-81
2023/04/12 09:20:37;;;;;;;5.50;2.00;;;7.50;1.00;7.90;92771.00;;;;7381337;19;20634;-79
2023/04/12 09:23:23;;;;;;;3.97;2.23;;;7.50;1.00;8.00;92797.00;;;;7380049;19;20711;-78
2023/04/12 09:25:58;;;;;;;3.57;1.93;;;7.50;1.00;8.10;92768.00;;;;7376259;19;20161;-81
2023/04/12 09:28:33;;;;;;;3.70;2.37;;;7.50;1.00;8.20;92780.00;;;;7380052;19;20222;-80
2023/04/12 09:31:02;;;;;;;3.07;1.90;;;7.60;1.00;8.10;92783.00;;;;7382966;19;20125;-76
2023/04/12 09:33:38;;;;;;;4.10;2.00;;;7.70;1.00;8.30;92782.00;;;;7377790;19;20124;-79
2023/04/12 09:36:14;;;;;;;5.03;2.10;;;7.70;1.00;8.20;92751.00;;;;7380594;19;20149;-77
2023/04/12 09:38:59;;;;;;;4.73;2.37;;;7.70;1.00;8.10;92785.00;;;;7379386;19;20161;-77
2023/04/12 09:41:35;;;;;;;4.57;2.07;;;7.70;1.00;7.90;92761.00;;;;7378341;19;20676;-79
2023/04/12 09:44:03;;;;;;;4.07;2.20;;;7.70;99.90;8.10;92773.00;;;;7381383;19;21373;-77
2023/04/12 09:46:50;;;;;;;4.47;1.90;;;7.70;1.00;8.20;92779.00;;;;7376886;19;20627;-80
2023/04/12 09:49:18;;;;;;;5.07;2.30;;;7.70;1.00;8.20;92769.00;;;;7381795;19;20125;-78
2023/04/12 09:51:53;;;;;;;2.63;2.03;;;7.70;1.00;8.30;92769.00;;;;7383425;19;20152;-78
2023/04/12 09:54:28;;;;;;;6.30;2.27;;;7.80;1.00;8.50;92749.00;;;;7386419;19;20604;-78
2023/04/12 09:56:56;;;;;;;4.30;2.00;;;7.90;1.00;8.60;92758.00;;;;7382322;19;21405;-79
2023/04/12 09:59:39;;;;;;;3.50;2.00;;;7.90;1.00;8.70;92761.00;;;;7389576;19;20609;-79
2023/04/12 10:02:18;;;;;;;3.63;2.00;;;8.00;1.00;8.90;92743.00;;;;7387442;19;20158;-80
2023/04/12 10:05:02;;;;;;;3.23;1.80;;;8.20;1.00;9.00;92733.00;;;;7386185;19;20243;-82
2023/04/12 10:07:43;;;;;;;5.13;1.90;;;8.30;1.00;9.00;92745.00;;;;7390690;19;20524;-82
2023/04/12 10:10:19;;;;;;;2.40;1.60;;;8.30;1.00;9.20;92737.00;;;;7395246;19;20121;-82
2023/04/12 10:12:48;;;;;;;4.20;1.77;;;8.40;1.00;9.20;92752.00;;;;7390903;19;20599;-82
2023/04/12 10:15:24;;;;;;;4.77;2.20;;;8.50;1.00;9.50;92734.00;;;;7386623;19;20619;-78
2023/04/12 10:17:57;;;;;;;2.30;1.30;;;8.60;1.00;9.40;92741.00;;;;7384958;19;20507;-80
2023/04/12 10:20:25;;;;;;;2.47;1.50;;;8.70;99.90;9.30;92741.00;;;;7380247;19;20515;-75
2023/04/12 10:22:59;;;;;;;2.63;1.40;;;8.70;99.90;9.60;92716.00;;;;7382573;19;20468;-79
2023/04/12 10:25:33;;;;;;;1.97;1.33;;;8.70;99.90;9.40;92749.00;;;;7388320;19;20490;-79
2023/04/12 10:28:17;;;;;;;1.90;1.40;;;8.60;99.90;9.30;92752.00;;;;7393938;19;20648;-78
2023/04/12 10:30:56;;;;;;;2.03;1.30;;;8.70;99.90;9.40;92736.00;;;;7389517;19;20153;-77
2023/04/12 10:33:30;;;;;;;1.30;1.10;;;8.70;88.70;9.50;92711.00;;;;7381082;19;20163;-79
2023/04/12 10:36:11;;;;;;;2.53;1.20;;;8.80;99.90;9.50;92687.00;;;;7384297;19;20208;-77
2023/04/12 10:38:46;;;;;;;1.40;0.98;;;8.90;99.90;9.40;92721.00;;;;7386917;19;20132;-77
2023/04/12 10:41:21;;;;;;;1.50;1.00;;;9.00;88.40;10.00;92716.00;;;;7385003;19;20168;-78
2023/04/12 10:44:28;;;;;;;1.92;1.27;;;9.20;99.90;10.10;92705.00;;;;7385088;19;20547;-79
2023/04/12 10:47:02;;;;;;;2.47;1.40;;;9.30;87.50;9.90;92688.00;;;;7384590;19;20152;-79
2023/04/12 10:49:29;;;;;;;1.85;1.40;;;9.20;10.00;10.10;92709.00;;;;7385849;19;20129;-79
2023/04/12 10:52:07;;;;;;;2.75;1.40;;;9.30;1.00;9.90;92706.00;;;;7385218;19;20152;-78
2023/04/12 10:54:36;;;;;;;1.63;1.35;;;9.40;1.00;9.90;92708.00;;;;7383596;19;20187;-79
2023/04/12 10:57:42;;;;;;;1.47;1.00;;;9.30;1.00;9.60;92686.00;;;;7385898;19;20136;-75
2023/04/12 11:00:10;;;;;;;2.43;1.10;;;9.30;1.00;9.50;92719.00;;;;7383762;19;20605;-77
2023/04/12 11:03:10;;;;;;;1.00;1.00;;;9.10;1.00;9.60;92708.00;;;;7385136;19;20158;-75
2023/04/12 11:06:00;;;;;;;2.60;1.30;;;9.10;1.00;9.60;92718.00;;;;7382134;19;20149;-76
2023/04/12 11:08:55;;;;;;;2.17;1.37;;;9.00;99.90;9.80;92696.00;;;;7383432;19;20596;-78
2023/04/12 11:11:26;;;;;;;5.30;1.23;;;9.10;14.20;9.70;92670.00;;;;7385008;19;20629;-76
2023/04/12 11:14:02;;;;;;;1.63;1.00;;;9.10;99.90;10.20;92688.00;;;;7383843;19;20161;-75
2023/04/12 11:16:30;;;;;;;2.50;1.33;;;9.30;1.00;10.40;92684.00;;;;7385311;19;20137;-75
2023/04/12 11:19:06;;;;;;;1.20;1.10;;;9.60;1.00;10.50;92677.00;;;;7383838;19;20164;-75
2023/04/12 11:21:41;;;;;;;2.73;1.17;;;9.80;1.00;11.00;92691.00;;;;7383731;19;20154;-76
2023/04/12 11:24:14;;;;;;;1.42;1.00;;;10.20;58.30;10.90;92652.00;;;;7385846;19;20132;-75
2023/04/12 11:26:49;;;;;;;2.15;1.00;;;10.50;1.00;11.00;92664.00;;;;7383687;19;20162;-76
2023/04/12 11:29:24;;;;;;;1.70;0.95;;;10.50;1.00;10.50;92641.00;;;;7383219;19;20522;-76
2023/04/12 11:31:57;;;;;;;1.25;1.10;;;10.40;99.90;10.60;92669.00;;;;7383438;19;20132;-75
2023/04/12 11:34:34;;;;;;;1.75;0.95;;;10.40;99.90;10.80;92679.00;;;;7382646;19;20148;-75
2023/04/12 11:37:06;;;;;;;1.23;0.90;;;10.20;1.00;10.20;92670.00;;;;7385503;19;20193;-74
2023/04/12 11:39:43;;;;;;;1.00;0.82;;;10.00;99.90;9.30;92700.00;;;;7383805;19;20470;-75
2023/04/12 11:42:23;;;;;;;3.40;1.00;;;9.60;99.90;9.40;92692.00;;;;7383585;19;20184;-77
2023/04/12 11:44:57;;;;;;;2.10;0.90;;;9.40;99.90;9.90;92671.00;;;;7384152;19;20132;-76
2023/04/12 11:47:43;;;;;;;1.17;0.93;;;9.40;1.00;9.80;92678.00;;;;7384911;19;20470;-76